Terminal Aerodrome Forecast
Issued by NWS Billings, MT

Home | Current Version | Previous Version | Text Only | Print | Product List | Glossary On
Versions: 1 2 3 4 5 6 7 8 9 10 11 12 13 14 15 16 17 18 19 20 21 22 23 24 25 26 27 28 29 30 31 32 33 34
000
FTUS45 KBYZ 262320
TAFSHR
TAF
KSHR 262320Z 2700/2724 33015KT P6SM VCSH BKN070 WS014/31030KT
     FM270400 32005KT P6SM SCT090 WS005/30031KT
     FM271000 VRB04KT P6SM SCT090 WS009/30034KT
     FM271300 28010KT P6SM FEW100
     FM271600 32018G24KT P6SM FEW100=

USA.gov is the U.S. government's official web portal to all federal, state and local government web resources and services.